sensor_id;sensor_type;location;lat;lon;timestamp;P1;durP1;ratioP1;P2;durP2;ratioP2
43962;SDS011;29622;45.534;9.242;2022-10-16T00:13:42;64.30;;;32.85;;
43962;SDS011;29622;45.534;9.242;2022-10-16T00:26:21;70.75;;;32.88;;
43962;SDS011;29622;45.534;9.242;2022-10-16T00:39:44;66.78;;;34.00;;
43962;SDS011;29622;45.534;9.242;2022-10-16T00:51:44;72.13;;;34.72;;
43962;SDS011;29622;45.534;9.242;2022-10-16T00:58:06;62.53;;;31.50;;
43962;SDS011;29622;45.534;9.242;2022-10-16T01:03:47;65.75;;;32.10;;
43962;SDS011;29622;45.534;9.242;2022-10-16T02:07:56;72.28;;;37.58;;
43962;SDS011;29622;45.534;9.242;2022-10-16T02:14:40;72.50;;;35.85;;
43962;SDS011;29622;45.534;9.242;2022-10-16T02:19:52;74.55;;;35.10;;
43962;SDS011;29622;45.534;9.242;2022-10-16T02:57:45;121.53;;;45.75;;
43962;SDS011;29622;45.534;9.242;2022-10-16T03:04:07;74.85;;;37.83;;
43962;SDS011;29622;45.534;9.242;2022-10-16T03:28:09;84.47;;;41.15;;
43962;SDS011;29622;45.534;9.242;2022-10-16T03:39:24;82.00;;;39.22;;
43962;SDS011;29622;45.534;9.242;2022-10-16T03:52:30;90.78;;;38.83;;
43962;SDS011;29622;45.534;9.242;2022-10-16T04:11:11;67.25;;;33.67;;
43962;SDS011;29622;45.534;9.242;2022-10-16T04:16:50;66.18;;;31.90;;
43962;SDS011;29622;45.534;9.242;2022-10-16T04:23:00;60.25;;;30.92;;
43962;SDS011;29622;45.534;9.242;2022-10-16T04:29:00;59.28;;;30.92;;
43962;SDS011;29622;45.534;9.242;2022-10-16T04:34:12;57.15;;;30.02;;
43962;SDS011;29622;45.534;9.242;2022-10-16T04:47:53;64.13;;;30.25;;
43962;SDS011;29622;45.534;9.242;2022-10-16T06:06:46;41.17;;;23.75;;
43962;SDS011;29622;45.534;9.242;2022-10-16T07:14:16;45.10;;;23.38;;
43962;SDS011;29622;45.534;9.242;2022-10-16T07:19:22;43.08;;;23.88;;
43962;SDS011;29622;45.534;9.242;2022-10-16T07:24:26;50.90;;;25.80;;
43962;SDS011;29622;45.534;9.242;2022-10-16T07:29:33;42.03;;;22.42;;
43962;SDS011;29622;45.534;9.242;2022-10-16T07:40:39;31.65;;;15.18;;
43962;SDS011;29622;45.534;9.242;2022-10-16T07:46:18;33.65;;;18.35;;
43962;SDS011;29622;45.534;9.242;2022-10-16T07:51:21;16.80;;;9.10;;
43962;SDS011;29622;45.534;9.242;2022-10-16T07:56:23;18.65;;;9.38;;
43962;SDS011;29622;45.534;9.242;2022-10-16T08:01:24;38.25;;;19.98;;
43962;SDS011;29622;45.534;9.242;2022-10-16T08:06:26;39.47;;;20.90;;
43962;SDS011;29622;45.534;9.242;2022-10-16T08:11:27;39.38;;;19.73;;
43962;SDS011;29622;45.534;9.242;2022-10-16T08:16:28;32.50;;;19.08;;
43962;SDS011;29622;45.534;9.242;2022-10-16T08:21:29;35.75;;;19.02;;
43962;SDS011;29622;45.534;9.242;2022-10-16T08:26:29;38.67;;;19.15;;
43962;SDS011;29622;45.534;9.242;2022-10-16T08:31:30;32.03;;;18.75;;
43962;SDS011;29622;45.534;9.242;2022-10-16T08:36:31;21.38;;;11.07;;
43962;SDS011;29622;45.534;9.242;2022-10-16T08:41:37;41.55;;;21.48;;
43962;SDS011;29622;45.534;9.242;2022-10-16T08:47:23;58.72;;;24.55;;
43962;SDS011;29622;45.534;9.242;2022-10-16T08:52:32;38.40;;;19.90;;
43962;SDS011;29622;45.534;9.242;2022-10-16T08:57:38;35.05;;;17.73;;
43962;SDS011;29622;45.534;9.242;2022-10-16T09:02:48;65.80;;;32.00;;
43962;SDS011;29622;45.534;9.242;2022-10-16T09:13:29;20.38;;;12.75;;
43962;SDS011;29622;45.534;9.242;2022-10-16T09:24:12;13.20;;;7.50;;
43962;SDS011;29622;45.534;9.242;2022-10-16T09:29:19;45.55;;;24.67;;
43962;SDS011;29622;45.534;9.242;2022-10-16T09:34:27;29.85;;;11.93;;
43962;SDS011;29622;45.534;9.242;2022-10-16T09:39:47;42.67;;;16.20;;
43962;SDS011;29622;45.534;9.242;2022-10-16T09:44:52;66.38;;;33.53;;
43962;SDS011;29622;45.534;9.242;2022-10-16T09:50:36;51.40;;;27.02;;
43962;SDS011;29622;45.534;9.242;2022-10-16T09:55:23;31.60;;;11.88;;
43962;SDS011;29622;45.534;9.242;2022-10-16T10:00:24;31.90;;;14.48;;
43962;SDS011;29622;45.534;9.242;2022-10-16T10:05:25;43.65;;;20.70;;
43962;SDS011;29622;45.534;9.242;2022-10-16T10:10:30;38.33;;;20.45;;
43962;SDS011;29622;45.534;9.242;2022-10-16T10:15:41;70.55;;;35.67;;
43962;SDS011;29622;45.534;9.242;2022-10-16T10:20:42;74.05;;;35.58;;
43962;SDS011;29622;45.534;9.242;2022-10-16T10:36:17;52.28;;;26.55;;
43962;SDS011;29622;45.534;9.242;2022-10-16T10:46:58;52.08;;;24.55;;
43962;SDS011;29622;45.534;9.242;2022-10-16T10:58:20;59.85;;;31.60;;
43962;SDS011;29622;45.534;9.242;2022-10-16T11:13:36;60.30;;;30.50;;
43962;SDS011;29622;45.534;9.242;2022-10-16T11:34:51;65.15;;;30.73;;
43962;SDS011;29622;45.534;9.242;2022-10-16T11:39:58;63.58;;;31.85;;
43962;SDS011;29622;45.534;9.242;2022-10-16T11:45:29;64.72;;;32.28;;
43962;SDS011;29622;45.534;9.242;2022-10-16T11:55:43;50.15;;;27.27;;
43962;SDS011;29622;45.534;9.242;2022-10-16T12:11:06;84.53;;;41.10;;
43962;SDS011;29622;45.534;9.242;2022-10-16T12:21:13;50.40;;;27.02;;
43962;SDS011;29622;45.534;9.242;2022-10-16T12:26:28;42.03;;;22.10;;
43962;SDS011;29622;45.534;9.242;2022-10-16T12:31:36;79.35;;;33.67;;
43962;SDS011;29622;45.534;9.242;2022-10-16T12:36:43;65.38;;;32.83;;
43962;SDS011;29622;45.534;9.242;2022-10-16T12:41:43;64.78;;;33.10;;
43962;SDS011;29622;45.534;9.242;2022-10-16T12:46:44;69.53;;;35.58;;
43962;SDS011;29622;45.534;9.242;2022-10-16T12:51:45;73.55;;;35.35;;
43962;SDS011;29622;45.534;9.242;2022-10-16T13:07:34;31.08;;;17.25;;
43962;SDS011;29622;45.534;9.242;2022-10-16T13:23:58;31.27;;;17.42;;
43962;SDS011;29622;45.534;9.242;2022-10-16T13:29:21;33.08;;;17.33;;
43962;SDS011;29622;45.534;9.242;2022-10-16T13:34:22;68.57;;;36.38;;
43962;SDS011;29622;45.534;9.242;2022-10-16T13:39:25;27.63;;;15.77;;
43962;SDS011;29622;45.534;9.242;2022-10-16T13:44:34;70.30;;;34.27;;
43962;SDS011;29622;45.534;9.242;2022-10-16T13:49:39;67.18;;;32.95;;
43962;SDS011;29622;45.534;9.242;2022-10-16T13:54:41;34.83;;;18.60;;
43962;SDS011;29622;45.534;9.242;2022-10-16T13:59:41;70.57;;;34.08;;
43962;SDS011;29622;45.534;9.242;2022-10-16T14:04:42;48.72;;;26.80;;
43962;SDS011;29622;45.534;9.242;2022-10-16T14:09:47;74.72;;;37.45;;
43962;SDS011;29622;45.534;9.242;2022-10-16T14:14:50;38.10;;;20.42;;
43962;SDS011;29622;45.534;9.242;2022-10-16T14:19:54;38.20;;;20.25;;
43962;SDS011;29622;45.534;9.242;2022-10-16T14:24:56;36.03;;;18.95;;
43962;SDS011;29622;45.534;9.242;2022-10-16T14:30:18;64.75;;;32.45;;
43962;SDS011;29622;45.534;9.242;2022-10-16T14:35:23;74.75;;;37.80;;
43962;SDS011;29622;45.534;9.242;2022-10-16T14:40:27;72.15;;;35.10;;
43962;SDS011;29622;45.534;9.242;2022-10-16T14:45:31;28.48;;;16.13;;
43962;SDS011;29622;45.534;9.242;2022-10-16T14:50:34;36.40;;;18.05;;
43962;SDS011;29622;45.534;9.242;2022-10-16T14:55:36;31.77;;;18.35;;
43962;SDS011;29622;45.534;9.242;2022-10-16T15:00:37;40.80;;;21.50;;
43962;SDS011;29622;45.534;9.242;2022-10-16T15:05:38;63.33;;;33.20;;
43962;SDS011;29622;45.534;9.242;2022-10-16T15:10:40;67.07;;;32.53;;
43962;SDS011;29622;45.534;9.242;2022-10-16T15:15:43;32.75;;;18.58;;
43962;SDS011;29622;45.534;9.242;2022-10-16T15:20:45;36.72;;;18.85;;
43962;SDS011;29622;45.534;9.242;2022-10-16T15:25:49;61.08;;;30.58;;
43962;SDS011;29622;45.534;9.242;2022-10-16T15:30:52;37.70;;;20.83;;
43962;SDS011;29622;45.534;9.242;2022-10-16T15:35:54;37.53;;;19.38;;
43962;SDS011;29622;45.534;9.242;2022-10-16T15:40:55;71.03;;;30.55;;
43962;SDS011;29622;45.534;9.242;2022-10-16T15:46:01;37.35;;;20.02;;
43962;SDS011;29622;45.534;9.242;2022-10-16T15:51:07;36.38;;;20.17;;
43962;SDS011;29622;45.534;9.242;2022-10-16T15:56:09;63.50;;;31.15;;
43962;SDS011;29622;45.534;9.242;2022-10-16T16:01:12;64.15;;;32.28;;
43962;SDS011;29622;45.534;9.242;2022-10-16T16:06:13;34.08;;;19.33;;
43962;SDS011;29622;45.534;9.242;2022-10-16T16:11:14;40.70;;;20.50;;
43962;SDS011;29622;45.534;9.242;2022-10-16T16:16:16;38.38;;;20.90;;
43962;SDS011;29622;45.534;9.242;2022-10-16T16:21:17;64.78;;;34.70;;
43962;SDS011;29622;45.534;9.242;2022-10-16T16:26:22;72.38;;;36.85;;
43962;SDS011;29622;45.534;9.242;2022-10-16T16:31:31;64.80;;;35.42;;
43962;SDS011;29622;45.534;9.242;2022-10-16T16:36:33;75.70;;;34.88;;
43962;SDS011;29622;45.534;9.242;2022-10-16T16:41:34;60.55;;;32.55;;
43962;SDS011;29622;45.534;9.242;2022-10-16T16:46:35;45.92;;;25.02;;
43962;SDS011;29622;45.534;9.242;2022-10-16T16:51:36;68.78;;;37.00;;
43962;SDS011;29622;45.534;9.242;2022-10-16T16:56:38;76.13;;;35.92;;
43962;SDS011;29622;45.534;9.242;2022-10-16T17:01:39;75.95;;;38.00;;
43962;SDS011;29622;45.534;9.242;2022-10-16T17:06:40;81.30;;;38.30;;
43962;SDS011;29622;45.534;9.242;2022-10-16T17:11:41;76.70;;;36.50;;
43962;SDS011;29622;45.534;9.242;2022-10-16T17:16:44;71.63;;;37.15;;
43962;SDS011;29622;45.534;9.242;2022-10-16T17:21:47;79.60;;;39.08;;
43962;SDS011;29622;45.534;9.242;2022-10-16T17:26:49;75.88;;;37.78;;
43962;SDS011;29622;45.534;9.242;2022-10-16T17:31:50;85.05;;;41.42;;
43962;SDS011;29622;45.534;9.242;2022-10-16T17:36:51;73.88;;;38.55;;
43962;SDS011;29622;45.534;9.242;2022-10-16T17:41:52;82.97;;;42.45;;
43962;SDS011;29622;45.534;9.242;2022-10-16T17:46:53;87.63;;;40.15;;
43962;SDS011;29622;45.534;9.242;2022-10-16T17:51:54;80.35;;;39.42;;
43962;SDS011;29622;45.534;9.242;2022-10-16T17:56:55;76.80;;;38.45;;
43962;SDS011;29622;45.534;9.242;2022-10-16T18:01:56;72.72;;;37.25;;
43962;SDS011;29622;45.534;9.242;2022-10-16T18:06:56;78.47;;;38.10;;
43962;SDS011;29622;45.534;9.242;2022-10-16T18:11:59;87.07;;;41.97;;
43962;SDS011;29622;45.534;9.242;2022-10-16T18:17:00;79.65;;;39.50;;
43962;SDS011;29622;45.534;9.242;2022-10-16T18:22:01;87.97;;;40.95;;
43962;SDS011;29622;45.534;9.242;2022-10-16T18:27:01;79.93;;;38.85;;
43962;SDS011;29622;45.534;9.242;2022-10-16T18:32:02;91.15;;;42.90;;
43962;SDS011;29622;45.534;9.242;2022-10-16T18:37:03;84.10;;;40.63;;
43962;SDS011;29622;45.534;9.242;2022-10-16T18:42:03;77.43;;;39.72;;
43962;SDS011;29622;45.534;9.242;2022-10-16T18:47:04;76.63;;;38.58;;
43962;SDS011;29622;45.534;9.242;2022-10-16T18:52:05;74.97;;;38.55;;
43962;SDS011;29622;45.534;9.242;2022-10-16T18:57:05;69.60;;;38.15;;
43962;SDS011;29622;45.534;9.242;2022-10-16T19:02:07;77.22;;;38.95;;
43962;SDS011;29622;45.534;9.242;2022-10-16T19:07:08;78.55;;;39.30;;
43962;SDS011;29622;45.534;9.242;2022-10-16T19:12:10;81.57;;;40.67;;
43962;SDS011;29622;45.534;9.242;2022-10-16T19:17:10;85.00;;;42.53;;
43962;SDS011;29622;45.534;9.242;2022-10-16T19:22:11;83.13;;;41.13;;
43962;SDS011;29622;45.534;9.242;2022-10-16T19:27:26;89.85;;;43.85;;
43962;SDS011;29622;45.534;9.242;2022-10-16T19:32:27;81.95;;;40.08;;
43962;SDS011;29622;45.534;9.242;2022-10-16T19:37:27;77.43;;;40.47;;
43962;SDS011;29622;45.534;9.242;2022-10-16T19:42:28;85.38;;;42.90;;
43962;SDS011;29622;45.534;9.242;2022-10-16T19:53:18;92.82;;;44.20;;
43962;SDS011;29622;45.534;9.242;2022-10-16T19:58:26;88.55;;;43.35;;
43962;SDS011;29622;45.534;9.242;2022-10-16T20:09:45;81.82;;;39.45;;
43962;SDS011;29622;45.534;9.242;2022-10-16T20:15:01;89.13;;;42.50;;
43962;SDS011;29622;45.534;9.242;2022-10-16T20:20:41;87.90;;;42.17;;
43962;SDS011;29622;45.534;9.242;2022-10-16T20:26:13;75.18;;;40.10;;
43962;SDS011;29622;45.534;9.242;2022-10-16T20:31:34;84.10;;;42.13;;
43962;SDS011;29622;45.534;9.242;2022-10-16T20:37:07;78.03;;;40.65;;
43962;SDS011;29622;45.534;9.242;2022-10-16T20:42:32;75.88;;;40.15;;
43962;SDS011;29622;45.534;9.242;2022-10-16T20:47:58;81.30;;;41.65;;
43962;SDS011;29622;45.534;9.242;2022-10-16T20:54:08;80.23;;;38.70;;
43962;SDS011;29622;45.534;9.242;2022-10-16T20:59:35;86.43;;;39.60;;
43962;SDS011;29622;45.534;9.242;2022-10-16T21:05:01;81.05;;;41.00;;
43962;SDS011;29622;45.534;9.242;2022-10-16T21:35:13;76.63;;;37.65;;
43962;SDS011;29622;45.534;9.242;2022-10-16T21:40:58;77.18;;;39.03;;
43962;SDS011;29622;45.534;9.242;2022-10-16T21:46:09;74.22;;;38.13;;
43962;SDS011;29622;45.534;9.242;2022-10-16T21:52:04;74.47;;;36.55;;
43962;SDS011;29622;45.534;9.242;2022-10-16T22:09:44;78.57;;;38.25;;
43962;SDS011;29622;45.534;9.242;2022-10-16T22:15:15;68.57;;;36.25;;
43962;SDS011;29622;45.534;9.242;2022-10-16T22:53:37;73.97;;;37.35;;
